Weather at Elmore Airport

Public forecast

Using degrees Celsius for public forecast. Weather courtesy of forecast.io.

Closest aviation weather report (METAR) to Elmore Airport

Closest report is Melbourne International Airport, 71.7 nm (132.7 km) S.

2022/12/03 13:30 (retrieved 11 minutes ago)

YMML 031330Z 34003KT CAVOK 18/14 Q1014

Closest aviation forecast (TAF) to Elmore Airport

Closest forecast is Melbourne International Airport, 71.7 nm (132.7 km) S.

2022/12/03 12:12 Ammendment (retrieved 1 hour ago)

TAF AMD YMML 031109Z 0312/0418 VRB03KT CAVOK FM031400 01007KT CAVOK FM031800 01018G28KT CAVOK FM040000 34015G25KT CAVOK FM040200 31012KT CAVOK FM040800 01008KT CAVOK FM041200 20008KT CAVOK